createdAt,value
2022-08-01T00:00:12.161Z,91.21
2022-08-01T00:02:41.292Z,89.25
2022-08-01T00:05:14.591Z,88.92
2022-08-01T00:07:42.626Z,88.02
2022-08-01T00:10:13.709Z,88.77
2022-08-01T00:12:42.569Z,87.25
2022-08-01T00:15:13.581Z,86.59
2022-08-01T00:17:42.040Z,85.19
2022-08-01T00:20:12.725Z,87.38
2022-08-01T00:22:40.995Z,88.18
2022-08-01T00:25:10.575Z,90.68
2022-08-01T00:27:38.958Z,90.53
2022-08-01T00:30:13.103Z,91.36
2022-08-01T00:32:43.699Z,90.37
2022-08-01T00:35:12.120Z,90.83
2022-08-01T00:37:43.345Z,94.64
2022-08-01T00:40:11.824Z,100.00
2022-08-01T00:42:43.422Z,100.00
2022-08-01T00:45:13.093Z,100.00
2022-08-01T00:47:41.423Z,99.94
2022-08-01T00:50:10.911Z,100.00
2022-08-01T00:52:41.366Z,97.63
2022-08-01T00:55:15.190Z,97.92
2022-08-01T00:58:03.681Z,99.51
2022-08-01T01:00:34.761Z,100.00
2022-08-01T01:03:29.409Z,96.46
2022-08-01T01:06:33.843Z,98.94
2022-08-01T01:09:07.711Z,100.00
2022-08-01T01:11:59.730Z,100.00
2022-08-01T01:14:50.000Z,100.00
2022-08-01T01:17:31.217Z,100.00
2022-08-01T01:20:15.059Z,100.00
2022-08-01T01:22:58.811Z,100.00
2022-08-01T01:25:30.063Z,100.00
2022-08-01T01:28:29.307Z,100.00
2022-08-01T01:30:59.722Z,100.00
2022-08-01T01:33:32.290Z,100.00
2022-08-01T01:36:07.580Z,100.00
2022-08-01T01:38:44.035Z,100.00
2022-08-01T01:41:15.245Z,100.00
2022-08-01T01:43:45.976Z,100.00
2022-08-01T01:46:17.952Z,100.00
2022-08-01T01:48:47.539Z,100.00
2022-08-01T01:51:16.268Z,100.00
2022-08-01T01:53:46.400Z,100.00
2022-08-01T01:56:17.305Z,99.23
2022-08-01T01:58:49.374Z,100.00
2022-08-01T02:02:05.249Z,96.63
2022-08-01T02:04:08.283Z,99.87
2022-08-01T02:06:38.671Z,100.00
2022-08-01T02:09:09.274Z,100.00
2022-08-01T02:12:07.365Z,100.00
2022-08-01T02:14:28.822Z,100.00
2022-08-01T02:17:00.233Z,100.00
2022-08-01T02:19:28.762Z,100.00
2022-08-01T02:22:07.257Z,100.00
2022-08-01T02:24:43.259Z,100.00
2022-08-01T02:27:15.516Z,100.00
2022-08-01T02:30:00.058Z,100.00
2022-08-01T02:32:51.046Z,100.00
2022-08-01T02:35:27.515Z,100.00
2022-08-01T02:37:58.312Z,100.00
2022-08-01T02:40:30.807Z,100.00
2022-08-01T02:43:03.262Z,100.00
2022-08-01T02:45:33.794Z,100.00
2022-08-01T02:48:09.054Z,100.00
2022-08-01T02:50:38.566Z,100.00
2022-08-01T02:53:09.036Z,100.00
2022-08-01T02:55:42.310Z,100.00
2022-08-01T02:58:12.013Z,100.00
2022-08-01T03:00:44.120Z,100.00
2022-08-01T03:03:18.029Z,100.00
2022-08-01T03:05:47.375Z,100.00
2022-08-01T03:08:17.779Z,100.00
2022-08-01T03:10:48.347Z,100.00
2022-08-01T03:13:19.008Z,100.00
2022-08-01T03:15:48.926Z,100.00
2022-08-01T03:18:18.424Z,100.00
2022-08-01T03:20:47.766Z,100.00
2022-08-01T03:23:18.250Z,100.00
2022-08-01T03:25:47.684Z,100.00
2022-08-01T03:28:19.510Z,100.00
2022-08-01T03:30:48.756Z,100.00
2022-08-01T03:33:17.073Z,100.00
2022-08-01T03:35:49.340Z,100.00
2022-08-01T03:38:27.441Z,100.00
2022-08-01T03:40:59.414Z,100.00
2022-08-01T03:43:37.686Z,100.00
2022-08-01T03:46:14.676Z,100.00
2022-08-01T03:48:48.247Z,100.00
2022-08-01T03:51:18.974Z,100.00
2022-08-01T03:53:48.484Z,100.00
2022-08-01T03:56:21.171Z,100.00
2022-08-01T03:58:50.497Z,100.00
2022-08-01T04:01:19.947Z,100.00
2022-08-01T04:03:48.460Z,100.00
2022-08-01T04:06:16.635Z,100.00
2022-08-01T04:08:56.412Z,100.00
2022-08-01T04:11:29.699Z,100.00
2022-08-01T04:13:58.576Z,100.00
2022-08-01T04:16:27.243Z,100.00
2022-08-01T04:18:55.510Z,100.00
2022-08-01T04:21:29.849Z,100.00
2022-08-01T04:24:12.775Z,100.00
2022-08-01T04:26:44.319Z,100.00
2022-08-01T04:29:13.623Z,100.00
2022-08-01T04:31:45.659Z,100.00
2022-08-01T04:34:17.673Z,100.00
2022-08-01T04:36:47.192Z,100.00
2022-08-01T04:39:16.865Z,100.00
2022-08-01T04:41:47.711Z,100.00
2022-08-01T04:44:16.280Z,100.00
2022-08-01T04:46:46.671Z,100.00
2022-08-01T04:49:17.527Z,100.00
2022-08-01T04:51:58.404Z,100.00
2022-08-01T04:54:31.490Z,100.00
2022-08-01T04:57:01.116Z,100.00
2022-08-01T04:59:42.180Z,100.00
2022-08-01T05:02:19.022Z,100.00
2022-08-01T05:04:47.674Z,100.00
2022-08-01T05:07:16.769Z,100.00
2022-08-01T05:09:47.236Z,100.00
2022-08-01T05:12:17.935Z,100.00
2022-08-01T05:14:46.998Z,100.00
2022-08-01T05:17:15.245Z,100.00
2022-08-01T05:19:44.018Z,100.00
2022-08-01T05:22:12.362Z,100.00
2022-08-01T05:24:41.703Z,100.00
2022-08-01T05:27:11.643Z,100.00
2022-08-01T05:29:44.686Z,100.00
2022-08-01T05:32:13.421Z,100.00
2022-08-01T05:34:44.573Z,100.00
2022-08-01T05:37:12.836Z,100.00
2022-08-01T05:39:42.439Z,100.00
2022-08-01T05:42:10.720Z,100.00
2022-08-01T05:44:38.950Z,100.00
2022-08-01T05:47:07.245Z,99.34
2022-08-01T05:49:35.557Z,97.51
2022-08-01T05:52:04.225Z,98.74
2022-08-01T05:54:33.010Z,98.11
2022-08-01T05:57:04.346Z,97.07
2022-08-01T05:59:32.770Z,96.41
2022-08-01T06:02:02.331Z,95.98
2022-08-01T06:04:30.600Z,94.12
2022-08-01T06:06:58.808Z,92.65
2022-08-01T06:09:27.080Z,90.41
2022-08-01T06:11:58.128Z,86.92
2022-08-01T06:14:26.417Z,85.64
2022-08-01T06:16:54.636Z,85.83
2022-08-01T06:19:27.299Z,84.31
2022-08-01T06:21:55.559Z,82.36
2022-08-01T06:24:24.893Z,79.86
2022-08-01T06:26:53.289Z,78.71
2022-08-01T06:29:21.474Z,77.94
2022-08-01T06:31:49.998Z,75.88
2022-08-01T06:34:18.176Z,74.81
2022-08-01T06:36:49.426Z,74.40
2022-08-01T06:39:17.606Z,75.45
2022-08-01T06:41:47.938Z,73.28
2022-08-01T06:44:16.501Z,72.42
2022-08-01T06:46:44.646Z,70.62
2022-08-01T06:49:12.926Z,70.35
2022-08-01T06:51:41.357Z,68.28
2022-08-01T06:54:09.587Z,63.40
2022-08-01T06:56:37.728Z,64.08
2022-08-01T06:59:05.874Z,57.39
2022-08-01T07:01:34.308Z,57.00
2022-08-01T07:04:03.861Z,55.55
2022-08-01T07:06:32.077Z,52.08
2022-08-01T07:09:08.259Z,51.23
2022-08-01T07:11:37.835Z,50.11
2022-08-01T07:14:06.139Z,52.00
2022-08-01T07:16:34.424Z,48.79
2022-08-01T07:19:02.707Z,50.91
2022-08-01T07:21:40.665Z,46.81
2022-08-01T07:24:13.899Z,42.03
2022-08-01T07:26:53.761Z,41.23
2022-08-01T07:29:24.771Z,38.75
2022-08-01T07:31:55.756Z,38.40
2022-08-01T07:34:25.052Z,39.98
2022-08-01T07:36:53.922Z,39.67
2022-08-01T07:39:25.153Z,42.14
2022-08-01T07:42:06.605Z,41.93
2022-08-01T07:44:36.634Z,42.21
2022-08-01T07:47:05.649Z,42.34
2022-08-01T07:49:39.594Z,43.96
2022-08-01T07:52:09.728Z,42.05
2022-08-01T07:54:38.067Z,41.56
2022-08-01T07:57:06.462Z,38.19
2022-08-01T07:59:35.030Z,39.71
2022-08-01T08:02:03.464Z,41.38
2022-08-01T08:04:31.848Z,42.32
2022-08-01T08:07:00.033Z,42.20
2022-08-01T08:09:28.269Z,42.53
2022-08-01T08:11:56.414Z,40.35
2022-08-01T08:14:32.511Z,39.08
2022-08-01T08:17:01.852Z,39.00
2022-08-01T08:19:37.460Z,40.10
2022-08-01T08:22:08.984Z,40.19
2022-08-01T08:24:45.512Z,39.18
2022-08-01T08:27:15.879Z,40.32
2022-08-01T08:29:44.860Z,38.58
2022-08-01T08:32:13.811Z,38.99
2022-08-01T08:34:42.190Z,39.01
2022-08-01T08:37:10.787Z,39.87
2022-08-01T08:39:41.173Z,40.81
2022-08-01T08:42:12.140Z,41.82
2022-08-01T08:44:43.705Z,41.13
2022-08-01T08:47:20.335Z,41.19
2022-08-01T08:49:51.328Z,42.20
2022-08-01T08:52:21.891Z,41.71
2022-08-01T08:54:52.380Z,40.06
2022-08-01T08:57:21.949Z,39.85
2022-08-01T08:59:53.154Z,41.21
2022-08-01T09:02:22.414Z,39.82
2022-08-01T09:04:52.339Z,40.64
2022-08-01T09:07:20.544Z,39.77
2022-08-01T09:09:50.301Z,39.45
2022-08-01T09:12:21.297Z,40.41
2022-08-01T09:14:51.347Z,39.02
2022-08-01T09:17:21.039Z,39.74
2022-08-01T09:19:55.350Z,38.81
2022-08-01T09:22:27.060Z,39.16
2022-08-01T09:25:09.982Z,38.74
2022-08-01T09:27:43.883Z,39.55
2022-08-01T09:30:23.695Z,40.32
2022-08-01T09:33:06.553Z,39.36
2022-08-01T09:35:57.013Z,39.40
2022-08-01T09:38:30.170Z,38.38
2022-08-01T09:41:02.006Z,38.61
2022-08-01T09:43:32.397Z,37.95
2022-08-01T09:46:12.862Z,38.26
2022-08-01T09:49:03.623Z,37.63
2022-08-01T09:51:59.029Z,38.08
2022-08-01T09:54:35.492Z,38.78
2022-08-01T09:57:17.972Z,37.60
2022-08-01T09:59:58.456Z,37.48
2022-08-01T10:02:39.266Z,37.06
2022-08-01T10:05:10.804Z,37.05
2022-08-01T10:07:58.963Z,41.92
2022-08-01T10:10:31.455Z,38.92
2022-08-01T10:13:04.299Z,38.34
2022-08-01T10:15:37.210Z,38.56
2022-08-01T10:18:16.707Z,37.91
2022-08-01T10:20:56.321Z,36.80
2022-08-01T10:23:40.314Z,37.50
2022-08-01T10:26:11.291Z,37.40
2022-08-01T10:28:41.674Z,37.76
2022-08-01T10:31:13.159Z,38.12
2022-08-01T10:33:51.313Z,38.03
2022-08-01T10:36:25.901Z,39.24
2022-08-01T10:38:57.442Z,37.16
2022-08-01T10:41:27.495Z,38.15
2022-08-01T10:43:56.725Z,38.96
2022-08-01T10:46:25.608Z,37.66
2022-08-01T10:49:12.949Z,37.80
2022-08-01T10:51:53.009Z,38.80
2022-08-01T10:54:26.931Z,37.92
2022-08-01T10:57:00.559Z,37.40
2022-08-01T10:59:58.923Z,38.28
2022-08-01T11:02:36.002Z,38.31
2022-08-01T11:05:19.416Z,37.82
2022-08-01T11:07:53.672Z,36.56
2022-08-01T11:10:41.227Z,36.98
2022-08-01T11:13:13.507Z,37.32
2022-08-01T11:15:50.018Z,38.05
2022-08-01T11:18:30.824Z,38.50
2022-08-01T11:21:56.918Z,38.41
2022-08-01T11:23:55.593Z,40.78
2022-08-01T11:26:29.227Z,37.68
2022-08-01T11:29:21.195Z,37.61
2022-08-01T11:31:51.318Z,37.39
2022-08-01T11:34:19.801Z,38.23
2022-08-01T11:36:59.049Z,38.78
2022-08-01T11:39:28.072Z,37.61
2022-08-01T11:42:21.842Z,38.09
2022-08-01T11:44:51.358Z,38.65
2022-08-01T11:47:39.574Z,38.00
2022-08-01T11:50:28.071Z,40.30
2022-08-01T11:53:05.584Z,37.31
2022-08-01T11:55:35.893Z,36.89
2022-08-01T11:58:06.777Z,36.31
2022-08-01T12:00:38.283Z,34.83
2022-08-01T12:03:16.418Z,35.31
2022-08-01T12:05:54.716Z,35.23
2022-08-01T12:08:28.115Z,34.79
2022-08-01T12:11:01.991Z,35.70
2022-08-01T12:13:42.997Z,38.51
2022-08-01T12:16:12.410Z,36.28
2022-08-01T12:18:44.463Z,36.43
2022-08-01T12:21:12.743Z,35.85
2022-08-01T12:23:40.946Z,35.70
2022-08-01T12:26:09.264Z,36.69
2022-08-01T12:28:56.640Z,36.27
2022-08-01T12:31:33.802Z,35.52
2022-08-01T12:34:29.571Z,35.34
2022-08-01T12:37:00.197Z,35.63
2022-08-01T12:39:35.781Z,35.07
2022-08-01T12:42:12.286Z,34.40
2022-08-01T12:44:42.958Z,33.99
2022-08-01T12:47:12.928Z,33.70
2022-08-01T12:49:44.487Z,33.43
2022-08-01T12:52:14.014Z,33.30
2022-08-01T12:55:09.534Z,33.16
2022-08-01T12:57:53.073Z,31.46
2022-08-01T13:00:24.803Z,30.77
2022-08-01T13:03:07.049Z,31.12
2022-08-01T13:06:07.294Z,32.27
2022-08-01T13:08:38.944Z,31.95
2022-08-01T13:11:16.380Z,30.45
2022-08-01T13:13:52.706Z,29.66
2022-08-01T13:16:38.519Z,30.00
2022-08-01T13:19:14.903Z,31.08
2022-08-01T13:21:58.471Z,30.18
2022-08-01T13:24:30.646Z,30.71
2022-08-01T13:27:01.985Z,29.51
2022-08-01T13:29:42.593Z,30.49
2022-08-01T13:32:27.775Z,30.79
2022-08-01T13:35:13.194Z,30.10
2022-08-01T13:37:43.453Z,30.39
2022-08-01T13:40:12.634Z,29.60
2022-08-01T13:42:40.845Z,29.96
2022-08-01T13:45:14.092Z,29.59
2022-08-01T13:48:03.680Z,30.42
2022-08-01T13:50:36.291Z,30.02
2022-08-01T13:53:04.589Z,29.89
2022-08-01T13:55:35.223Z,30.50
2022-08-01T13:58:04.412Z,32.02
2022-08-01T14:00:32.721Z,31.01
2022-08-01T14:03:00.936Z,31.05
2022-08-01T14:05:29.152Z,31.43
2022-08-01T14:07:57.352Z,29.96
2022-08-01T14:10:26.719Z,30.04
2022-08-01T14:12:56.794Z,29.34
2022-08-01T14:15:39.180Z,29.54
2022-08-01T14:18:09.617Z,30.61
2022-08-01T14:20:40.887Z,31.65
2022-08-01T14:23:09.828Z,30.60
2022-08-01T14:26:01.696Z,32.44
2022-08-01T14:28:29.090Z,32.20
2022-08-01T14:31:00.949Z,32.41
2022-08-01T14:33:29.375Z,32.86
2022-08-01T14:36:05.089Z,33.41
2022-08-01T14:38:34.931Z,34.03
2022-08-01T14:41:06.101Z,34.82
2022-08-01T14:43:34.379Z,34.81
2022-08-01T14:46:04.566Z,35.69
2022-08-01T14:48:33.348Z,35.31
2022-08-01T14:51:03.735Z,35.88
2022-08-01T14:53:35.896Z,35.50
2022-08-01T14:56:05.159Z,36.00
2022-08-01T14:58:36.474Z,36.38
2022-08-01T15:01:06.714Z,35.32
2022-08-01T15:03:35.047Z,35.32
2022-08-01T15:06:03.399Z,35.61
2022-08-01T15:08:33.287Z,34.92
2022-08-01T15:11:04.644Z,34.20
2022-08-01T15:13:32.819Z,34.72
2022-08-01T15:16:01.263Z,35.79
2022-08-01T15:18:29.844Z,37.17
2022-08-01T15:21:00.796Z,37.23
2022-08-01T15:23:28.993Z,38.45
2022-08-01T15:25:59.535Z,36.39
2022-08-01T15:28:27.896Z,37.42
2022-08-01T15:30:56.144Z,37.18
2022-08-01T15:33:24.486Z,36.89
2022-08-01T15:35:53.841Z,38.78
2022-08-01T15:38:22.838Z,38.74
2022-08-01T15:40:51.188Z,37.85
2022-08-01T15:43:22.662Z,37.72
2022-08-01T15:45:50.873Z,38.33
2022-08-01T15:48:19.153Z,36.20
2022-08-01T15:50:48.753Z,38.47
2022-08-01T15:53:16.904Z,37.83
2022-08-01T15:55:52.261Z,37.55
2022-08-01T15:58:21.379Z,37.39
2022-08-01T16:00:49.671Z,37.32
2022-08-01T16:03:18.299Z,37.24
2022-08-01T16:05:46.555Z,38.36
2022-08-01T16:08:15.236Z,38.14
2022-08-01T16:10:43.791Z,37.53
2022-08-01T16:13:12.080Z,39.30
2022-08-01T16:15:41.029Z,39.36
2022-08-01T16:18:13.261Z,37.75
2022-08-01T16:20:45.707Z,37.60
2022-08-01T16:23:14.831Z,37.76
2022-08-01T16:25:44.681Z,40.59
2022-08-01T16:28:14.360Z,38.24
2022-08-01T16:30:50.959Z,38.12
2022-08-01T16:33:53.884Z,37.91
2022-08-01T16:36:23.302Z,38.70
2022-08-01T16:38:53.296Z,40.48
2022-08-01T16:41:21.790Z,38.70
2022-08-01T16:43:53.802Z,39.04
2022-08-01T16:46:24.858Z,38.76
2022-08-01T16:48:54.125Z,38.92
2022-08-01T16:51:22.822Z,38.73
2022-08-01T16:53:51.317Z,39.55
2022-08-01T16:56:20.275Z,39.65
2022-08-01T16:58:49.155Z,38.88
2022-08-01T17:01:58.817Z,40.21
2022-08-01T17:04:08.314Z,39.60
2022-08-01T17:06:39.380Z,39.78
2022-08-01T17:09:09.292Z,39.76
2022-08-01T17:11:37.476Z,39.38
2022-08-01T17:14:06.047Z,39.89
2022-08-01T17:16:34.703Z,39.99
2022-08-01T17:19:03.739Z,39.79
2022-08-01T17:21:31.983Z,39.60
2022-08-01T17:24:00.224Z,39.90
2022-08-01T17:26:28.569Z,39.71
2022-08-01T17:28:56.734Z,39.46
2022-08-01T17:31:27.621Z,39.57
2022-08-01T17:33:55.896Z,39.64
2022-08-01T17:36:24.176Z,39.68
2022-08-01T17:38:55.327Z,40.08
2022-08-01T17:41:23.520Z,39.85
2022-08-01T17:43:51.674Z,40.29
2022-08-01T17:46:20.683Z,39.67
2022-08-01T17:48:49.835Z,40.19
2022-08-01T17:51:22.624Z,39.93
2022-08-01T17:53:56.992Z,39.48
2022-08-01T17:56:29.999Z,39.85
2022-08-01T17:59:01.742Z,41.08
2022-08-01T18:01:29.939Z,40.51
2022-08-01T18:03:59.238Z,40.64
2022-08-01T18:06:29.015Z,40.54
2022-08-01T18:08:59.722Z,41.35
2022-08-01T18:11:37.349Z,40.75
2022-08-01T18:14:06.570Z,41.56
2022-08-01T18:16:34.844Z,40.53
2022-08-01T18:19:05.592Z,40.10
2022-08-01T18:21:37.548Z,40.69
2022-08-01T18:24:09.565Z,40.24
2022-08-01T18:26:37.761Z,41.05
2022-08-01T18:29:07.596Z,42.25
2022-08-01T18:31:35.978Z,41.68
2022-08-01T18:34:04.339Z,41.24
2022-08-01T18:36:34.312Z,41.81
2022-08-01T18:39:06.359Z,42.22
2022-08-01T18:41:39.624Z,42.87
2022-08-01T18:44:09.012Z,44.86
2022-08-01T18:46:42.007Z,45.68
2022-08-01T18:49:12.055Z,47.19
2022-08-01T18:51:44.783Z,47.45
2022-08-01T18:54:15.121Z,49.77
2022-08-01T18:56:46.865Z,51.04
2022-08-01T18:59:17.454Z,51.86
2022-08-01T19:01:45.817Z,51.88
2022-08-01T19:04:14.046Z,52.19
2022-08-01T19:06:44.370Z,52.75
2022-08-01T19:09:20.584Z,53.49
2022-08-01T19:11:49.394Z,53.71
2022-08-01T19:14:17.721Z,53.52
2022-08-01T19:16:46.028Z,53.50
2022-08-01T19:19:14.254Z,54.83
2022-08-01T19:21:56.312Z,55.84
2022-08-01T19:24:25.787Z,56.48
2022-08-01T19:27:05.063Z,57.04
2022-08-01T19:29:42.906Z,57.74
2022-08-01T19:32:11.223Z,58.23
2022-08-01T19:34:54.095Z,58.38
2022-08-01T19:37:26.838Z,58.80
2022-08-01T19:39:56.539Z,59.48
2022-08-01T19:42:26.542Z,59.76
2022-08-01T19:44:55.442Z,59.93
2022-08-01T19:47:23.847Z,61.66
2022-08-01T19:49:52.016Z,59.24
2022-08-01T19:52:25.031Z,59.17
2022-08-01T19:54:56.874Z,59.42
2022-08-01T19:57:28.526Z,59.70
2022-08-01T20:00:23.832Z,60.54
2022-08-01T20:03:00.896Z,60.49
2022-08-01T20:05:29.270Z,60.95
2022-08-01T20:07:58.624Z,62.15
2022-08-01T20:10:29.994Z,61.47
2022-08-01T20:12:58.444Z,61.39
2022-08-01T20:15:26.903Z,62.04
2022-08-01T20:17:58.764Z,61.20
2022-08-01T20:20:27.489Z,60.69
2022-08-01T20:22:57.771Z,60.80
2022-08-01T20:25:39.359Z,61.65
2022-08-01T20:28:12.664Z,61.53
2022-08-01T20:30:43.795Z,62.68
2022-08-01T20:33:12.591Z,61.52
2022-08-01T20:35:53.530Z,62.03
2022-08-01T20:38:24.346Z,62.61
2022-08-01T20:40:54.816Z,62.01
2022-08-01T20:43:23.672Z,61.94
2022-08-01T20:45:52.499Z,61.06
2022-08-01T20:48:25.487Z,61.80
2022-08-01T20:51:19.821Z,61.78
2022-08-01T20:53:49.250Z,60.97
2022-08-01T20:56:37.002Z,61.17
2022-08-01T20:59:10.111Z,60.50
2022-08-01T21:01:52.772Z,61.22
2022-08-01T21:04:41.455Z,60.59
2022-08-01T21:07:21.544Z,60.25
2022-08-01T21:10:01.781Z,60.13
2022-08-01T21:12:43.791Z,60.99
2022-08-01T21:15:20.218Z,60.18
2022-08-01T21:18:02.729Z,59.65
2022-08-01T21:20:34.103Z,60.03
2022-08-01T21:23:25.290Z,61.25
2022-08-01T21:25:54.256Z,61.72
2022-08-01T21:28:25.110Z,61.80
2022-08-01T21:30:57.017Z,61.70
2022-08-01T21:33:27.215Z,61.70
2022-08-01T21:36:02.632Z,61.20
2022-08-01T21:38:36.907Z,60.24
2022-08-01T21:41:08.488Z,60.97
2022-08-01T21:43:38.359Z,61.56
2022-08-01T21:46:07.116Z,61.83
2022-08-01T21:48:37.477Z,62.62
2022-08-01T21:51:37.992Z,61.38
2022-08-01T21:54:40.328Z,61.49
2022-08-01T21:57:38.208Z,62.14
2022-08-01T22:00:25.250Z,61.14
2022-08-01T22:03:35.906Z,60.66
2022-08-01T22:06:05.840Z,60.99
2022-08-01T22:08:36.421Z,60.89
2022-08-01T22:11:11.966Z,61.67
2022-08-01T22:13:42.015Z,60.84
2022-08-01T22:16:12.888Z,61.76
2022-08-01T22:18:41.160Z,61.49
2022-08-01T22:21:10.768Z,61.40
2022-08-01T22:23:39.075Z,62.11
2022-08-01T22:26:09.435Z,61.95
2022-08-01T22:28:39.944Z,61.05
2022-08-01T22:31:08.375Z,60.67
2022-08-01T22:33:38.383Z,60.43
2022-08-01T22:36:07.710Z,62.09
2022-08-01T22:38:36.031Z,61.40
2022-08-01T22:41:15.932Z,62.17
2022-08-01T22:44:04.318Z,62.64
2022-08-01T22:47:16.850Z,62.19
2022-08-01T22:50:00.927Z,62.85
2022-08-01T22:52:31.156Z,60.92
2022-08-01T22:55:09.388Z,60.43
2022-08-01T22:57:40.447Z,58.49
2022-08-01T23:00:12.680Z,57.98
2022-08-01T23:02:45.949Z,59.93
2022-08-01T23:05:22.611Z,58.65
2022-08-01T23:07:53.860Z,59.02
2022-08-01T23:10:25.037Z,58.51
2022-08-01T23:12:55.347Z,57.04
2022-08-01T23:15:25.135Z,57.28
2022-08-01T23:17:54.707Z,57.71
2022-08-01T23:20:23.522Z,56.59
2022-08-01T23:22:52.282Z,57.59
2022-08-01T23:25:20.473Z,56.17
2022-08-01T23:28:05.110Z,57.25
2022-08-01T23:30:35.686Z,55.68
2022-08-01T23:33:04.335Z,55.74
2022-08-01T23:35:36.928Z,54.51
2022-08-01T23:38:10.243Z,54.42
2022-08-01T23:40:39.094Z,54.23
2022-08-01T23:43:16.898Z,54.58
2022-08-01T23:46:03.718Z,54.29
2022-08-01T23:48:37.112Z,55.19
2022-08-01T23:51:06.694Z,55.22
2022-08-01T23:53:37.646Z,55.62
2022-08-01T23:56:07.011Z,56.08
2022-08-01T23:58:35.170Z,55.21
